createdAt,value
2022-08-05T00:00:51.305Z,24.65
2022-08-05T00:01:52.883Z,24.62
2022-08-05T00:02:54.490Z,24.74
2022-08-05T00:03:57.195Z,24.63
2022-08-05T00:04:58.871Z,24.62
2022-08-05T00:06:04.838Z,24.71
2022-08-05T00:07:59.451Z,24.40
2022-08-05T00:08:43.539Z,24.38
2022-08-05T00:09:45.048Z,24.33
2022-08-05T00:10:47.123Z,24.32
2022-08-05T00:11:56.034Z,24.35
2022-08-05T00:13:01.401Z,24.21
2022-08-05T00:14:11.981Z,24.33
2022-08-05T00:15:56.136Z,24.28
2022-08-05T00:16:52.476Z,24.38
2022-08-05T00:17:55.255Z,24.41
2022-08-05T00:18:56.775Z,24.36
2022-08-05T00:20:02.634Z,24.39
2022-08-05T00:21:06.935Z,24.30
2022-08-05T00:22:11.231Z,24.20
2022-08-05T00:23:13.307Z,24.31
2022-08-05T00:24:18.982Z,24.34
2022-08-05T00:25:25.887Z,24.36
2022-08-05T00:26:27.399Z,24.33
2022-08-05T00:27:35.967Z,24.38
2022-08-05T00:28:38.537Z,24.37
2022-08-05T00:29:41.438Z,24.25
2022-08-05T00:30:44.119Z,24.26
2022-08-05T00:32:10.678Z,24.28
2022-08-05T00:33:07.658Z,24.34
2022-08-05T00:34:56.127Z,24.47
2022-08-05T00:36:16.400Z,24.33
2022-08-05T00:37:14.208Z,24.19
2022-08-05T00:38:16.007Z,24.20
2022-08-05T00:39:30.402Z,24.18
2022-08-05T00:41:01.470Z,24.19
2022-08-05T00:42:03.114Z,24.16
2022-08-05T00:43:07.614Z,24.12
2022-08-05T00:44:09.165Z,24.05
2022-08-05T00:45:13.425Z,24.01
2022-08-05T00:46:15.128Z,23.96
2022-08-05T00:47:17.811Z,23.96
2022-08-05T00:48:31.463Z,24.05
2022-08-05T00:49:44.595Z,24.05
2022-08-05T00:50:53.215Z,23.97
2022-08-05T00:51:54.797Z,23.81
2022-08-05T00:52:56.891Z,23.69
2022-08-05T00:54:02.591Z,23.45
2022-08-05T00:55:05.138Z,23.44
2022-08-05T00:56:07.969Z,23.60
2022-08-05T00:57:09.654Z,23.63
2022-08-05T00:58:12.757Z,23.64
2022-08-05T00:59:14.755Z,23.61
2022-08-05T01:00:17.014Z,23.67
2022-08-05T01:01:41.959Z,23.69
2022-08-05T01:02:40.419Z,23.63
2022-08-05T01:03:42.865Z,23.57
2022-08-05T01:04:44.501Z,23.56
2022-08-05T01:05:54.501Z,23.61
2022-08-05T01:06:56.553Z,23.63
2022-08-05T01:08:40.218Z,23.61
2022-08-05T01:09:20.388Z,23.60
2022-08-05T01:10:28.691Z,23.61
2022-08-05T01:11:37.235Z,23.67
2022-08-05T01:12:54.365Z,23.68
2022-08-05T01:14:15.354Z,23.70
2022-08-05T01:15:36.328Z,23.77
2022-08-05T01:16:47.340Z,23.77
2022-08-05T01:18:01.077Z,23.79
2022-08-05T01:19:36.831Z,23.82
2022-08-05T01:21:01.742Z,23.76
2022-08-05T01:22:37.209Z,23.79
2022-08-05T01:24:14.572Z,23.76
2022-08-05T01:25:40.467Z,23.78
2022-08-05T01:27:33.031Z,23.80
2022-08-05T01:28:45.726Z,23.81
2022-08-05T01:29:50.437Z,23.79
2022-08-05T01:31:10.205Z,23.91
2022-08-05T01:32:20.342Z,23.90
2022-08-05T01:33:35.630Z,23.93
2022-08-05T01:34:51.088Z,23.79
2022-08-05T01:35:57.701Z,23.70
2022-08-05T01:37:07.899Z,23.70
2022-08-05T01:38:14.570Z,23.71
2022-08-05T01:39:45.525Z,23.68
2022-08-05T01:40:48.776Z,23.60
2022-08-05T01:41:53.243Z,23.52
2022-08-05T01:42:56.920Z,23.32
2022-08-05T01:44:01.907Z,23.16
2022-08-05T01:45:08.160Z,22.94
2022-08-05T01:46:16.264Z,23.07
2022-08-05T01:47:20.887Z,22.94
2022-08-05T01:48:23.869Z,22.94
2022-08-05T01:49:27.804Z,22.86
2022-08-05T01:50:51.511Z,22.87
2022-08-05T01:52:01.837Z,22.97
2022-08-05T01:53:54.696Z,23.01
2022-08-05T01:54:53.001Z,23.07
2022-08-05T01:56:00.105Z,23.08
2022-08-05T01:58:10.035Z,23.14
2022-08-05T01:58:44.666Z,23.20
2022-08-05T01:59:49.618Z,23.12
2022-08-05T02:00:52.286Z,23.06
2022-08-05T02:01:56.646Z,23.02
2022-08-05T02:03:28.992Z,23.00
2022-08-05T02:04:36.922Z,22.96
2022-08-05T02:05:44.964Z,22.93
2022-08-05T02:06:50.656Z,22.91
2022-08-05T02:08:00.269Z,22.94
2022-08-05T02:09:04.053Z,22.79
2022-08-05T02:10:07.969Z,22.82
2022-08-05T02:11:12.701Z,22.78
2022-08-05T02:12:32.869Z,22.73
2022-08-05T02:13:53.361Z,22.66
2022-08-05T02:15:12.429Z,22.36
2022-08-05T02:16:22.051Z,22.31
2022-08-05T02:18:31.138Z,22.35
2022-08-05T02:18:58.597Z,22.41
2022-08-05T02:20:03.733Z,22.50
2022-08-05T02:21:15.014Z,22.53
2022-08-05T02:22:26.775Z,22.60
2022-08-05T02:23:33.769Z,22.62
2022-08-05T02:24:40.746Z,22.67
2022-08-05T02:25:49.428Z,22.51
2022-08-05T02:26:58.046Z,22.43
2022-08-05T02:28:01.804Z,22.46
2022-08-05T02:29:08.066Z,22.23
2022-08-05T02:30:26.894Z,22.12
2022-08-05T02:31:34.768Z,22.12
2022-08-05T02:32:39.579Z,22.08
2022-08-05T02:33:48.329Z,21.99
2022-08-05T02:34:54.724Z,22.00
2022-08-05T02:36:01.208Z,22.05
2022-08-05T02:37:05.347Z,22.12
2022-08-05T02:38:09.148Z,22.13
2022-08-05T02:39:12.829Z,22.23
2022-08-05T02:40:17.386Z,22.29
2022-08-05T02:41:21.137Z,22.45
2022-08-05T02:42:25.836Z,22.47
2022-08-05T02:43:29.405Z,22.35
2022-08-05T02:44:33.817Z,22.31
2022-08-05T02:45:52.366Z,22.33
2022-08-05T02:46:59.995Z,22.36
2022-08-05T02:48:11.410Z,22.39
2022-08-05T02:49:16.026Z,22.26
2022-08-05T02:50:18.742Z,22.29
2022-08-05T02:51:28.502Z,22.31
2022-08-05T02:52:45.706Z,22.24
2022-08-05T02:53:48.561Z,22.20
2022-08-05T02:54:57.573Z,22.25
2022-08-05T02:56:02.197Z,22.39
2022-08-05T02:57:10.252Z,22.52
2022-08-05T02:58:30.978Z,22.72
2022-08-05T02:59:47.864Z,22.70
2022-08-05T03:00:56.170Z,22.65
2022-08-05T03:02:00.653Z,22.66
2022-08-05T03:03:10.413Z,22.64
2022-08-05T03:04:14.611Z,22.68
2022-08-05T03:05:21.796Z,22.74
2022-08-05T03:06:55.668Z,22.84
2022-08-05T03:08:08.589Z,22.81
2022-08-05T03:09:17.720Z,22.71
2022-08-05T03:10:24.465Z,22.64
2022-08-05T03:11:55.561Z,22.61
2022-08-05T03:12:51.749Z,22.62
2022-08-05T03:14:03.042Z,22.60
2022-08-05T03:15:07.748Z,22.44
2022-08-05T03:16:10.853Z,22.48
2022-08-05T03:17:17.215Z,22.63
2022-08-05T03:18:18.718Z,22.40
2022-08-05T03:19:34.610Z,22.27
2022-08-05T03:20:37.983Z,22.26
2022-08-05T03:21:49.730Z,22.40
2022-08-05T03:22:53.051Z,22.52
2022-08-05T03:23:59.444Z,22.54
2022-08-05T03:25:11.538Z,22.64
2022-08-05T03:26:31.755Z,22.55
2022-08-05T03:27:59.574Z,22.56
2022-08-05T03:28:56.273Z,22.75
2022-08-05T03:30:08.446Z,22.84
2022-08-05T03:31:10.862Z,22.90
2022-08-05T03:32:20.989Z,22.72
2022-08-05T03:33:51.031Z,22.77
2022-08-05T03:34:54.387Z,22.95
2022-08-05T03:35:57.979Z,23.04
2022-08-05T03:36:59.612Z,23.14
2022-08-05T03:38:03.054Z,23.24
2022-08-05T03:39:08.426Z,23.27
2022-08-05T03:40:24.186Z,23.24
2022-08-05T03:41:38.558Z,23.17
2022-08-05T03:42:52.271Z,23.23
2022-08-05T03:44:09.270Z,23.36
2022-08-05T03:45:21.999Z,23.39
2022-08-05T03:46:26.828Z,23.26
2022-08-05T03:47:35.221Z,23.12
2022-08-05T03:48:37.617Z,23.10
2022-08-05T03:49:51.070Z,22.98
2022-08-05T03:50:53.984Z,22.87
2022-08-05T03:52:39.331Z,22.84
2022-08-05T03:55:34.663Z,22.81
2022-08-05T03:56:04.086Z,22.62
2022-08-05T03:56:38.370Z,22.32
2022-08-05T03:57:45.863Z,22.42
2022-08-05T03:58:51.152Z,22.55
2022-08-05T04:00:00.303Z,22.64
2022-08-05T04:01:06.931Z,22.77
2022-08-05T04:02:17.292Z,22.83
2022-08-05T04:03:38.164Z,22.78
2022-08-05T04:04:40.728Z,22.79
2022-08-05T04:05:47.033Z,22.83
2022-08-05T04:06:51.311Z,22.87
2022-08-05T04:07:57.891Z,22.91
2022-08-05T04:09:02.122Z,23.02
2022-08-05T04:10:03.910Z,23.08
2022-08-05T04:11:08.730Z,23.09
2022-08-05T04:12:24.541Z,23.06
2022-08-05T04:13:49.370Z,23.06
2022-08-05T04:14:49.830Z,23.08
2022-08-05T04:16:03.036Z,23.31
2022-08-05T04:17:08.426Z,23.40
2022-08-05T04:18:20.466Z,23.41
2022-08-05T04:19:28.726Z,23.38
2022-08-05T04:20:30.213Z,23.39
2022-08-05T04:22:08.133Z,23.39
2022-08-05T04:22:54.935Z,23.27
2022-08-05T04:24:06.469Z,23.20
2022-08-05T04:25:11.135Z,23.14
2022-08-05T04:26:15.825Z,23.10
2022-08-05T04:27:19.858Z,23.05
2022-08-05T04:28:40.485Z,23.02
2022-08-05T04:29:53.161Z,22.96
2022-08-05T04:30:54.617Z,22.98
2022-08-05T04:31:56.739Z,22.99
2022-08-05T04:32:58.431Z,22.99
2022-08-05T04:34:31.710Z,23.08
2022-08-05T04:35:21.742Z,23.03
2022-08-05T04:36:45.098Z,23.00
2022-08-05T04:38:02.201Z,22.94
2022-08-05T04:39:07.722Z,22.90
2022-08-05T04:40:10.511Z,22.92
2022-08-05T04:41:12.083Z,22.98
2022-08-05T04:42:13.712Z,23.01
2022-08-05T04:43:16.560Z,23.02
2022-08-05T04:44:21.216Z,23.05
2022-08-05T04:45:48.925Z,23.16
2022-08-05T04:46:54.156Z,23.11
2022-08-05T04:48:05.771Z,23.09
2022-08-05T04:49:12.124Z,23.08
2022-08-05T04:50:16.293Z,23.12
2022-08-05T04:51:37.821Z,23.14
2022-08-05T04:52:39.290Z,22.99
2022-08-05T04:53:40.772Z,22.91
2022-08-05T04:54:43.362Z,22.96
2022-08-05T04:56:14.291Z,22.99
2022-08-05T04:57:07.943Z,23.07
2022-08-05T04:58:12.347Z,23.08
2022-08-05T04:59:24.252Z,23.11
2022-08-05T05:00:38.776Z,23.13
2022-08-05T05:02:06.899Z,23.12
2022-08-05T05:03:03.754Z,23.14
2022-08-05T05:04:05.998Z,23.16
2022-08-05T05:05:16.527Z,23.16
2022-08-05T05:06:40.089Z,23.18
2022-08-05T05:07:53.004Z,23.17
2022-08-05T05:08:58.189Z,23.20
2022-08-05T05:10:05.387Z,23.23
2022-08-05T05:11:08.206Z,23.39
2022-08-05T05:12:09.733Z,23.44
2022-08-05T05:13:15.796Z,23.44
2022-08-05T05:14:17.676Z,23.42
2022-08-05T05:15:56.762Z,23.44
2022-08-05T05:16:51.588Z,23.45
2022-08-05T05:17:57.575Z,23.46
2022-08-05T05:19:18.513Z,23.48
2022-08-05T05:20:21.032Z,23.52
2022-08-05T05:21:27.176Z,23.55
2022-08-05T05:22:28.795Z,23.58
2022-08-05T05:23:39.466Z,23.60
2022-08-05T05:24:57.319Z,23.65
2022-08-05T05:26:01.303Z,23.70
2022-08-05T05:27:03.154Z,23.70
2022-08-05T05:28:05.419Z,23.73
2022-08-05T05:29:10.108Z,23.73
2022-08-05T05:30:30.519Z,23.63
2022-08-05T05:32:35.390Z,23.60
2022-08-05T05:33:57.080Z,23.76
2022-08-05T05:34:58.385Z,23.69
2022-08-05T05:35:59.894Z,23.73
2022-08-05T05:37:01.632Z,23.69
2022-08-05T05:38:09.126Z,23.72
2022-08-05T05:39:15.216Z,23.75
2022-08-05T05:40:25.804Z,23.72
2022-08-05T05:41:40.390Z,23.60
2022-08-05T05:42:47.095Z,23.66
2022-08-05T05:43:58.607Z,23.75
2022-08-05T05:45:03.095Z,23.81
2022-08-05T05:46:05.148Z,23.81
2022-08-05T05:47:21.876Z,23.85
2022-08-05T05:48:27.742Z,23.88
2022-08-05T05:49:29.331Z,23.92
2022-08-05T05:50:31.046Z,23.94
2022-08-05T05:51:50.632Z,23.98
2022-08-05T05:52:52.380Z,24.03
2022-08-05T05:53:58.652Z,24.09
2022-08-05T05:55:07.430Z,24.12
2022-08-05T05:56:14.974Z,24.16
2022-08-05T05:57:42.886Z,24.19
2022-08-05T05:58:49.384Z,24.24
2022-08-05T05:59:52.450Z,24.28
2022-08-05T06:00:54.330Z,24.21
2022-08-05T06:01:57.492Z,24.22
2022-08-05T06:03:01.681Z,24.24
2022-08-05T06:04:03.932Z,24.31
2022-08-05T06:05:10.475Z,24.35
2022-08-05T06:06:17.952Z,24.40
2022-08-05T06:07:22.486Z,24.45
2022-08-05T06:08:32.600Z,24.48
2022-08-05T06:09:50.214Z,24.49
2022-08-05T06:10:56.093Z,24.50
2022-08-05T06:12:01.146Z,24.55
2022-08-05T06:13:04.974Z,24.47
2022-08-05T06:14:07.950Z,24.42
2022-08-05T06:15:12.408Z,24.41
2022-08-05T06:16:28.691Z,24.47
2022-08-05T06:17:53.159Z,24.40
2022-08-05T06:18:55.334Z,24.38
2022-08-05T06:19:59.758Z,24.38
2022-08-05T06:21:01.493Z,24.43
2022-08-05T06:22:07.718Z,24.43
2022-08-05T06:23:10.911Z,24.43
2022-08-05T06:24:12.873Z,24.45
2022-08-05T06:25:50.537Z,24.48
2022-08-05T06:26:37.852Z,24.50
2022-08-05T06:28:10.500Z,24.43
2022-08-05T06:29:03.466Z,24.33
2022-08-05T06:30:17.821Z,24.43
2022-08-05T06:31:22.711Z,24.45
2022-08-05T06:32:33.722Z,24.46
2022-08-05T06:34:07.455Z,24.48
2022-08-05T06:34:58.737Z,24.46
2022-08-05T06:36:03.380Z,24.41
2022-08-05T06:37:09.549Z,24.34
2022-08-05T06:38:13.822Z,24.34
2022-08-05T06:39:15.858Z,24.34
2022-08-05T06:40:18.426Z,24.37
2022-08-05T06:41:23.003Z,24.26
2022-08-05T06:42:25.371Z,24.22
2022-08-05T06:43:58.406Z,24.26
2022-08-05T06:44:49.288Z,24.29
2022-08-05T06:46:04.118Z,24.40
2022-08-05T06:47:10.368Z,24.51
2022-08-05T06:48:47.151Z,24.41
2022-08-05T06:50:01.566Z,24.37
2022-08-05T06:51:09.331Z,24.34
2022-08-05T06:52:36.727Z,24.31
2022-08-05T06:53:33.826Z,24.32
2022-08-05T06:54:40.975Z,24.33
2022-08-05T06:55:42.480Z,24.43
2022-08-05T06:56:54.656Z,24.49
2022-08-05T06:58:19.661Z,24.43
2022-08-05T06:59:18.523Z,24.47
2022-08-05T07:00:24.473Z,24.56
2022-08-05T07:01:32.412Z,24.69
2022-08-05T07:02:41.916Z,24.76
2022-08-05T07:03:43.712Z,24.87
2022-08-05T07:04:45.746Z,24.98
2022-08-05T07:05:47.768Z,25.09
2022-08-05T07:06:51.219Z,25.14
2022-08-05T07:07:52.681Z,25.16
2022-08-05T07:08:55.076Z,25.23
2022-08-05T07:09:58.526Z,25.28
2022-08-05T07:11:00.115Z,25.38
2022-08-05T07:12:03.688Z,25.49
2022-08-05T07:13:57.183Z,25.51
2022-08-05T07:15:04.174Z,25.37
2022-08-05T07:18:00.823Z,25.48
2022-08-05T07:18:08.431Z,25.66
2022-08-05T07:19:11.502Z,25.77
2022-08-05T07:20:33.036Z,25.86
2022-08-05T07:22:00.479Z,25.94
2022-08-05T07:22:57.030Z,25.97
2022-08-05T07:23:59.071Z,25.93
2022-08-05T07:25:24.012Z,26.02
2022-08-05T07:26:25.704Z,26.18
2022-08-05T07:28:01.480Z,26.30
2022-08-05T07:28:50.988Z,26.49
2022-08-05T07:30:27.149Z,26.58
2022-08-05T07:31:13.919Z,26.65
2022-08-05T07:32:17.192Z,26.72
2022-08-05T07:33:36.834Z,26.80
2022-08-05T07:34:42.277Z,26.84
2022-08-05T07:36:01.747Z,26.95
2022-08-05T07:37:06.912Z,27.04
2022-08-05T07:38:26.226Z,27.11
2022-08-05T07:40:26.359Z,27.18
2022-08-05T07:41:02.804Z,27.19
2022-08-05T07:42:17.988Z,27.15
2022-08-05T07:43:33.139Z,27.13
2022-08-05T07:44:36.721Z,27.18
2022-08-05T07:45:57.354Z,27.28
2022-08-05T07:46:59.674Z,27.29
2022-08-05T07:48:01.860Z,27.30
2022-08-05T07:49:07.760Z,27.39
2022-08-05T07:50:09.670Z,27.43
2022-08-05T07:51:23.461Z,27.51
2022-08-05T07:52:32.617Z,27.57
2022-08-05T07:53:36.622Z,27.55
2022-08-05T07:54:41.391Z,27.69
2022-08-05T07:56:05.277Z,27.60
2022-08-05T07:57:18.113Z,27.71
2022-08-05T07:58:57.583Z,27.82
2022-08-05T07:59:52.174Z,27.77
2022-08-05T08:00:53.827Z,27.81
2022-08-05T08:01:57.699Z,27.89
2022-08-05T08:03:15.450Z,27.85
2022-08-05T08:04:17.246Z,27.77
2022-08-05T08:05:39.478Z,27.82
2022-08-05T08:06:41.637Z,27.93
2022-08-05T08:07:59.523Z,27.85
2022-08-05T08:09:02.013Z,27.69
2022-08-05T08:10:05.532Z,27.73
2022-08-05T08:11:08.820Z,27.71
2022-08-05T08:12:27.357Z,27.63
2022-08-05T08:13:49.284Z,27.62
2022-08-05T08:14:56.900Z,27.82
2022-08-05T08:16:49.935Z,27.85
2022-08-05T08:17:25.650Z,27.83
2022-08-05T08:18:29.510Z,27.66
2022-08-05T08:20:42.703Z,27.77
2022-08-05T08:21:02.548Z,27.78
2022-08-05T08:22:06.502Z,27.75
2022-08-05T08:23:59.663Z,27.68
2022-08-05T08:24:50.956Z,27.65
2022-08-05T08:26:00.787Z,27.67
2022-08-05T08:27:06.910Z,27.61
2022-08-05T08:28:11.445Z,27.65
2022-08-05T08:29:29.431Z,27.82
2022-08-05T08:30:47.774Z,27.87
2022-08-05T08:31:52.224Z,27.87
2022-08-05T08:32:53.758Z,27.87
2022-08-05T08:33:55.208Z,27.92
2022-08-05T08:34:57.625Z,27.97
2022-08-05T08:36:18.462Z,28.18
2022-08-05T08:37:21.664Z,28.31
2022-08-05T08:38:35.338Z,28.42
2022-08-05T08:39:38.149Z,28.46
2022-08-05T08:40:51.714Z,28.62
2022-08-05T08:41:59.882Z,28.73
2022-08-05T08:44:57.872Z,28.84
2022-08-05T08:45:20.091Z,28.98
2022-08-05T08:45:55.288Z,29.04
2022-08-05T08:46:57.213Z,29.09
2022-08-05T08:48:12.822Z,29.11
2022-08-05T08:50:13.106Z,29.18
2022-08-05T08:51:04.209Z,29.26
2022-08-05T08:52:14.768Z,29.35
2022-08-05T08:53:17.033Z,29.21
2022-08-05T08:54:18.718Z,29.03
2022-08-05T08:56:02.035Z,29.01
2022-08-05T08:56:47.794Z,29.01
2022-08-05T08:57:58.476Z,29.12
2022-08-05T08:59:09.780Z,29.15
2022-08-05T09:00:16.718Z,29.01
2022-08-05T09:01:22.010Z,29.09
2022-08-05T09:02:26.727Z,28.99
2022-08-05T09:03:40.452Z,28.81
2022-08-05T09:04:58.558Z,28.67
2022-08-05T09:06:09.082Z,28.70
2022-08-05T09:07:28.283Z,28.70
2022-08-05T09:08:30.414Z,28.72
2022-08-05T09:09:36.215Z,28.78
2022-08-05T09:10:46.893Z,28.61
2022-08-05T09:11:51.155Z,28.49
2022-08-05T09:12:57.030Z,28.40
2022-08-05T09:14:53.900Z,28.35
2022-08-05T09:15:28.565Z,28.33
2022-08-05T09:16:32.252Z,28.40
2022-08-05T09:17:40.718Z,28.38
2022-08-05T09:18:44.711Z,28.39
2022-08-05T09:20:01.723Z,28.31
2022-08-05T09:21:11.541Z,28.30
2022-08-05T09:22:31.517Z,28.25
2022-08-05T09:23:37.464Z,28.25
2022-08-05T09:24:58.600Z,28.18
2022-08-05T09:26:20.568Z,28.11
2022-08-05T09:28:05.388Z,28.10
2022-08-05T09:29:00.712Z,28.19
2022-08-05T09:30:06.760Z,28.24
2022-08-05T09:31:22.570Z,28.27
2022-08-05T09:32:42.804Z,28.41
2022-08-05T09:33:50.997Z,28.49
2022-08-05T09:34:55.083Z,28.50
2022-08-05T09:36:11.767Z,28.51
2022-08-05T09:38:12.749Z,28.47
2022-08-05T09:39:02.486Z,28.56
2022-08-05T09:40:05.111Z,28.54
2022-08-05T09:41:10.457Z,28.55
2022-08-05T09:42:24.309Z,28.57
2022-08-05T09:43:40.618Z,28.65
2022-08-05T09:44:49.448Z,28.75
2022-08-05T09:46:06.465Z,28.81
2022-08-05T09:47:20.677Z,29.13
2022-08-05T09:48:33.595Z,29.14
2022-08-05T09:50:00.433Z,29.07
2022-08-05T09:51:15.316Z,29.05
2022-08-05T09:52:17.840Z,29.07
2022-08-05T09:53:25.810Z,29.14
2022-08-05T09:54:32.375Z,29.19
2022-08-05T09:55:57.524Z,29.17
2022-08-05T09:57:01.684Z,29.11
2022-08-05T09:58:15.093Z,29.14
2022-08-05T09:59:17.537Z,29.14
2022-08-05T10:00:24.571Z,29.18
2022-08-05T10:01:32.308Z,29.26
2022-08-05T10:02:40.334Z,29.27
2022-08-05T10:03:58.880Z,29.26
2022-08-05T10:05:07.877Z,29.30
2022-08-05T10:06:15.513Z,29.49
2022-08-05T10:07:25.043Z,29.65
2022-08-05T10:08:42.462Z,29.71
2022-08-05T10:10:02.763Z,29.71
2022-08-05T10:11:17.649Z,29.76
2022-08-05T10:12:33.222Z,29.82
2022-08-05T10:13:45.800Z,29.84
2022-08-05T10:14:49.442Z,29.85
2022-08-05T10:15:58.257Z,29.87
2022-08-05T10:17:37.908Z,29.84
2022-08-05T10:18:37.438Z,29.84
2022-08-05T10:20:04.240Z,29.78
2022-08-05T10:21:06.396Z,29.77
2022-08-05T10:22:15.674Z,29.86
2022-08-05T10:23:55.325Z,29.96
2022-08-05T10:24:55.446Z,30.03
2022-08-05T10:26:00.126Z,30.05
2022-08-05T10:27:01.772Z,30.11
2022-08-05T10:28:16.631Z,30.13
2022-08-05T10:30:05.700Z,30.12
2022-08-05T10:32:52.205Z,30.26
2022-08-05T10:32:54.801Z,30.19
2022-08-05T10:33:34.184Z,30.21
2022-08-05T10:34:40.894Z,30.23
2022-08-05T10:35:44.371Z,30.14
2022-08-05T10:36:48.152Z,30.12
2022-08-05T10:37:51.665Z,30.24
2022-08-05T10:39:15.179Z,30.38
2022-08-05T10:40:45.045Z,30.47
2022-08-05T10:41:52.812Z,30.39
2022-08-05T10:42:59.770Z,30.39
2022-08-05T10:44:13.263Z,30.53
2022-08-05T10:45:23.821Z,30.64
2022-08-05T10:46:46.568Z,30.77
2022-08-05T10:48:30.313Z,30.73
2022-08-05T10:49:16.444Z,30.70
2022-08-05T10:50:28.054Z,30.79
2022-08-05T10:51:53.039Z,30.90
2022-08-05T10:53:01.759Z,30.98
2022-08-05T10:54:23.138Z,30.98
2022-08-05T10:55:25.493Z,31.02
2022-08-05T10:56:29.481Z,31.02
2022-08-05T10:57:33.996Z,30.91
2022-08-05T10:58:50.501Z,30.92
2022-08-05T11:00:13.455Z,30.92
2022-08-05T11:02:06.217Z,30.92
2022-08-05T11:03:22.992Z,30.93
2022-08-05T11:04:28.251Z,31.08
2022-08-05T11:05:34.404Z,31.22
2022-08-05T11:06:57.300Z,31.07
2022-08-05T11:08:12.698Z,31.04
2022-08-05T11:09:39.109Z,31.03
2022-08-05T11:10:57.754Z,31.02
2022-08-05T11:12:03.985Z,31.10
2022-08-05T11:13:06.867Z,31.19
2022-08-05T11:14:08.782Z,31.28
2022-08-05T11:15:20.290Z,31.34
2022-08-05T11:16:47.902Z,31.38
2022-08-05T11:17:59.716Z,31.42
2022-08-05T11:20:10.285Z,31.43
2022-08-05T11:20:52.695Z,31.21
2022-08-05T11:22:17.217Z,31.12
2022-08-05T11:24:04.181Z,31.17
2022-08-05T11:26:05.272Z,31.22
2022-08-05T11:27:45.813Z,31.11
2022-08-05T11:28:54.500Z,31.14
2022-08-05T11:29:59.823Z,31.04
2022-08-05T11:31:06.322Z,31.09
2022-08-05T11:32:28.054Z,31.18
2022-08-05T11:33:34.555Z,31.16
2022-08-05T11:34:52.165Z,31.21
2022-08-05T11:36:07.464Z,31.23
2022-08-05T11:38:28.186Z,31.20
2022-08-05T11:38:45.647Z,31.26
2022-08-05T11:39:55.627Z,31.15
2022-08-05T11:41:34.611Z,31.05
2022-08-05T11:42:29.173Z,30.91
2022-08-05T11:44:01.054Z,30.68
2022-08-05T11:45:00.760Z,30.62
2022-08-05T11:46:15.212Z,30.65
2022-08-05T11:47:49.843Z,30.70
2022-08-05T11:48:44.675Z,30.78
2022-08-05T11:49:50.927Z,30.80
2022-08-05T11:50:53.632Z,30.84
2022-08-05T11:51:57.329Z,30.79
2022-08-05T11:53:06.326Z,30.84
2022-08-05T11:54:13.882Z,30.94
2022-08-05T11:55:15.621Z,30.98
2022-08-05T11:56:17.376Z,30.99
2022-08-05T11:57:25.914Z,31.01
2022-08-05T11:58:35.808Z,31.02
2022-08-05T11:59:41.388Z,30.99
2022-08-05T12:01:02.222Z,30.92
2022-08-05T12:02:23.848Z,30.87
2022-08-05T12:03:31.985Z,30.79
2022-08-05T12:04:45.993Z,30.84
2022-08-05T12:06:03.197Z,30.81
2022-08-05T12:07:09.287Z,30.99
2022-08-05T12:08:18.058Z,31.14
2022-08-05T12:09:52.905Z,31.11
2022-08-05T12:10:49.543Z,31.16
2022-08-05T12:11:54.226Z,31.08
2022-08-05T12:13:04.297Z,31.15
2022-08-05T12:14:17.659Z,31.09
2022-08-05T12:15:20.903Z,31.10
2022-08-05T12:16:45.417Z,31.19
2022-08-05T12:18:03.842Z,31.34
2022-08-05T12:20:16.634Z,31.48
2022-08-05T12:20:38.413Z,31.61
2022-08-05T12:21:47.810Z,31.46
2022-08-05T12:22:51.879Z,31.43
2022-08-05T12:24:07.200Z,31.41
2022-08-05T12:25:09.254Z,31.46
2022-08-05T12:26:15.814Z,31.43
2022-08-05T12:27:25.333Z,31.33
2022-08-05T12:28:37.898Z,31.32
2022-08-05T12:29:39.465Z,31.46
2022-08-05T12:30:45.894Z,31.45
2022-08-05T12:31:53.794Z,31.42
2022-08-05T12:32:58.658Z,31.47
2022-08-05T12:34:09.870Z,31.63
2022-08-05T12:35:24.554Z,31.53
2022-08-05T12:36:38.985Z,31.70
2022-08-05T12:37:41.009Z,31.75
2022-08-05T12:38:45.520Z,31.98
2022-08-05T12:39:51.415Z,32.12
2022-08-05T12:40:54.027Z,32.26
2022-08-05T12:42:01.996Z,32.27
2022-08-05T12:43:07.078Z,32.40
2022-08-05T12:44:33.012Z,32.49
2022-08-05T12:45:42.740Z,32.53
2022-08-05T12:46:55.883Z,32.62
2022-08-05T12:48:01.617Z,32.51
2022-08-05T12:49:19.322Z,32.48
2022-08-05T12:50:26.985Z,32.53
2022-08-05T12:52:13.116Z,32.58
2022-08-05T12:53:05.594Z,32.66
2022-08-05T12:54:16.883Z,32.85
2022-08-05T12:55:32.560Z,32.94
2022-08-05T12:56:37.224Z,32.81
2022-08-05T12:58:38.364Z,32.79
2022-08-05T12:59:20.871Z,32.77
2022-08-05T13:02:03.204Z,32.83
2022-08-05T13:02:07.331Z,33.03
2022-08-05T13:03:12.315Z,33.10
2022-08-05T13:04:20.973Z,33.20
2022-08-05T13:05:24.711Z,33.25
2022-08-05T13:06:40.848Z,33.17
2022-08-05T13:08:00.483Z,33.26
2022-08-05T13:09:12.537Z,33.18
2022-08-05T13:10:20.072Z,33.20
2022-08-05T13:11:25.620Z,33.32
2022-08-05T13:12:51.093Z,33.47
2022-08-05T13:14:04.698Z,33.49
2022-08-05T13:15:16.336Z,33.58
2022-08-05T13:16:20.294Z,33.63
2022-08-05T13:17:31.502Z,33.75
2022-08-05T13:18:39.181Z,33.77
2022-08-05T13:19:52.923Z,33.76
2022-08-05T13:20:54.543Z,33.86
2022-08-05T13:21:56.745Z,33.74
2022-08-05T13:22:58.319Z,33.74
2022-08-05T13:23:59.753Z,33.75
2022-08-05T13:25:05.437Z,33.70
2022-08-05T13:26:07.416Z,33.75
2022-08-05T13:27:11.094Z,33.84
2022-08-05T13:28:20.461Z,33.89
2022-08-05T13:29:37.547Z,33.89
2022-08-05T13:30:39.938Z,33.85
2022-08-05T13:32:03.900Z,33.95
2022-08-05T13:33:04.405Z,34.02
2022-08-05T13:34:22.896Z,33.79
2022-08-05T13:35:43.067Z,33.88
2022-08-05T13:36:48.567Z,33.82
2022-08-05T13:37:55.544Z,33.94
2022-08-05T13:38:57.412Z,33.74
2022-08-05T13:40:14.075Z,33.79
2022-08-05T13:41:18.843Z,33.97
2022-08-05T13:42:22.011Z,33.87
2022-08-05T13:43:44.915Z,33.87
2022-08-05T13:44:51.919Z,34.03
2022-08-05T13:45:53.701Z,34.02
2022-08-05T13:47:02.512Z,34.07
2022-08-05T13:48:57.114Z,34.11
2022-08-05T13:49:31.260Z,34.07
2022-08-05T13:50:36.841Z,34.16
2022-08-05T13:51:40.427Z,34.13
2022-08-05T13:52:43.154Z,34.03
2022-08-05T13:53:47.810Z,34.05
2022-08-05T13:54:53.370Z,34.21
2022-08-05T13:56:00.224Z,34.27
2022-08-05T13:57:03.614Z,34.17
2022-08-05T13:58:07.766Z,34.03
2022-08-05T13:59:19.709Z,34.09
2022-08-05T14:00:27.469Z,34.19
2022-08-05T14:01:44.238Z,34.18
2022-08-05T14:02:48.274Z,34.20
2022-08-05T14:04:09.931Z,34.09
2022-08-05T14:05:11.974Z,34.20
2022-08-05T14:06:26.333Z,34.01
2022-08-05T14:07:59.920Z,33.89
2022-08-05T14:08:53.063Z,33.77
2022-08-05T14:09:54.738Z,33.81
2022-08-05T14:11:03.348Z,33.81
2022-08-05T14:12:32.289Z,33.85
2022-08-05T14:13:34.411Z,33.89
2022-08-05T14:14:36.003Z,34.01
2022-08-05T14:16:04.579Z,34.16
2022-08-05T14:16:59.575Z,34.14
2022-08-05T14:18:03.007Z,34.20
2022-08-05T14:19:05.398Z,34.30
2022-08-05T14:20:08.267Z,34.31
2022-08-05T14:22:08.296Z,34.01
2022-08-05T14:22:34.297Z,33.80
2022-08-05T14:23:37.306Z,33.93
2022-08-05T14:24:39.859Z,34.03
2022-08-05T14:25:44.947Z,34.20
2022-08-05T14:27:08.384Z,34.29
2022-08-05T14:28:08.885Z,34.27
2022-08-05T14:29:28.169Z,34.30
2022-08-05T14:30:32.777Z,34.35
2022-08-05T14:32:02.650Z,34.26
2022-08-05T14:32:56.857Z,34.28
2022-08-05T14:34:00.616Z,34.28
2022-08-05T14:35:02.509Z,34.32
2022-08-05T14:36:04.809Z,34.31
2022-08-05T14:37:06.692Z,34.27
2022-08-05T14:38:08.441Z,34.40
2022-08-05T14:39:29.898Z,34.58
2022-08-05T14:40:51.698Z,34.60
2022-08-05T14:42:19.429Z,34.45
2022-08-05T14:43:15.107Z,34.19
2022-08-05T14:44:20.193Z,34.06
2022-08-05T14:45:23.174Z,33.93
2022-08-05T14:46:28.015Z,33.98
2022-08-05T14:48:02.429Z,33.97
2022-08-05T14:48:52.566Z,33.93
2022-08-05T14:49:58.514Z,33.91
2022-08-05T14:51:02.189Z,33.67
2022-08-05T14:52:05.117Z,33.70
2022-08-05T14:53:12.502Z,33.78
2022-08-05T14:54:27.527Z,33.86
2022-08-05T14:55:39.008Z,33.97
2022-08-05T14:56:44.190Z,33.94
2022-08-05T14:57:54.760Z,34.04
2022-08-05T14:58:58.033Z,34.01
2022-08-05T14:59:59.471Z,33.93
2022-08-05T15:01:01.685Z,34.02
2022-08-05T15:02:15.886Z,34.10
2022-08-05T15:03:26.851Z,34.23
2022-08-05T15:04:34.949Z,34.28
2022-08-05T15:06:08.270Z,34.15
2022-08-05T15:06:58.174Z,34.20
2022-08-05T15:08:10.866Z,34.24
2022-08-05T15:09:52.343Z,34.33
2022-08-05T15:10:43.297Z,34.25